createdAt,value
2022-09-05T00:00:00.167Z,87.6
2022-09-05T00:05:00.210Z,87.6
2022-09-05T00:10:00.168Z,87.3
2022-09-05T00:15:17.576Z,87.9
2022-09-05T00:24:20.387Z,87.9
2022-09-05T00:25:27.943Z,87.6
2022-09-05T00:31:07.912Z,87.9
2022-09-05T00:35:00.173Z,87.9
2022-09-05T00:40:16.133Z,87.9
2022-09-05T00:45:00.190Z,88.2
2022-09-05T00:50:00.262Z,88.5
2022-09-05T00:55:00.183Z,88.5
2022-09-05T01:00:00.467Z,88.2
2022-09-05T01:05:00.179Z,88.5
2022-09-05T01:10:00.165Z,88.5
2022-09-05T01:15:00.163Z,88.5
2022-09-05T01:20:04.901Z,88.5
2022-09-05T01:25:00.171Z,88.5
2022-09-05T01:30:00.191Z,89.1
2022-09-05T01:35:00.178Z,88.5
2022-09-05T01:40:11.922Z,88.4
2022-09-05T01:45:00.172Z,88.4
2022-09-05T01:50:01.175Z,88.4
2022-09-05T01:55:00.186Z,89.1
2022-09-05T02:00:00.238Z,88.7
2022-09-05T02:05:00.648Z,89.4
2022-09-05T02:10:07.001Z,89.1
2022-09-05T02:15:00.327Z,89
2022-09-05T02:20:00.205Z,89.7
2022-09-05T02:25:30.528Z,89.7
2022-09-05T02:30:00.199Z,89.7
2022-09-05T02:35:00.179Z,89.6
2022-09-05T02:45:21.004Z,89.6
2022-09-05T02:45:21.234Z,89.6
2022-09-05T02:52:54.911Z,90.2
2022-09-05T02:57:33.868Z,90.2
2022-09-05T03:00:00.196Z,90.8
2022-09-05T03:05:04.341Z,91.2
2022-09-05T03:10:00.168Z,90.8
2022-09-05T03:15:00.178Z,90.8
2022-09-05T03:20:00.171Z,90.5
2022-09-05T03:25:00.189Z,90.5
2022-09-05T03:30:00.194Z,90.8
2022-09-05T03:35:00.164Z,91.1
2022-09-05T03:40:15.113Z,90.8
2022-09-05T03:45:00.177Z,91.1
2022-09-05T03:54:29.358Z,91.1
2022-09-05T03:57:25.241Z,91.1
2022-09-05T04:00:00.210Z,91.1
2022-09-05T04:08:16.626Z,91.5
2022-09-05T04:10:00.302Z,90.8
2022-09-05T04:15:00.166Z,90.8
2022-09-05T04:20:00.206Z,90.8
2022-09-05T04:25:00.183Z,91.5
2022-09-05T04:30:00.198Z,91.2
2022-09-05T04:35:00.177Z,91.5
2022-09-05T04:40:00.312Z,90.9
2022-09-05T04:45:00.168Z,90.9
2022-09-05T04:50:00.176Z,90.9
2022-09-05T04:55:00.161Z,90.9
2022-09-05T05:05:09.018Z,90.9
2022-09-05T05:06:11.039Z,90.9
2022-09-05T05:11:52.812Z,90.3
2022-09-05T05:18:08.285Z,90.9
2022-09-05T05:20:40.565Z,90.9
2022-09-05T05:25:00.177Z,90.3
2022-09-05T05:30:00.181Z,89.7
2022-09-05T05:35:00.173Z,89.7
2022-09-05T05:40:00.990Z,89.8
2022-09-05T05:45:00.283Z,89.4
2022-09-05T05:50:00.170Z,89.5
2022-09-05T05:55:24.735Z,89.2
2022-09-05T06:00:00.277Z,88.2
2022-09-05T06:05:03.829Z,88.2
2022-09-05T06:14:51.068Z,88
2022-09-05T06:15:09.089Z,88
2022-09-05T06:22:06.675Z,87.7
2022-09-05T06:25:16.298Z,88.1
2022-09-05T06:35:00.253Z,87.5
2022-09-05T06:40:00.392Z,86.3
2022-09-05T06:45:07.733Z,85.7
2022-09-05T06:50:21.735Z,85.1
2022-09-05T06:55:02.315Z,85.1
2022-09-05T07:00:04.967Z,83.9
2022-09-05T07:05:37.204Z,82.9
2022-09-05T07:10:06.084Z,81
2022-09-05T07:15:09.016Z,82
2022-09-05T07:20:00.213Z,81.1
2022-09-05T07:25:00.163Z,82.7
2022-09-05T07:30:01.731Z,80.2
2022-09-05T07:35:00.171Z,82.2
2022-09-05T07:40:02.409Z,82.2
2022-09-05T07:45:00.166Z,81
2022-09-05T07:51:07.692Z,79.8
2022-09-05T07:57:02.076Z,77.9
2022-09-05T08:00:00.195Z,77
2022-09-05T08:05:00.266Z,76.7
2022-09-05T08:10:09.120Z,76.7
2022-09-05T08:15:00.174Z,76.8
2022-09-05T08:20:08.487Z,73.9
2022-09-05T08:25:00.197Z,71.4
2022-09-05T08:30:25.267Z,72.4
2022-09-05T08:35:00.158Z,69.9
2022-09-05T08:40:11.314Z,69.3
2022-09-05T08:46:43.694Z,68.5
2022-09-05T08:50:00.210Z,68.9
2022-09-05T08:55:06.458Z,71.8
2022-09-05T09:00:19.681Z,71.1
2022-09-05T09:05:02.373Z,71.1
2022-09-05T09:10:00.232Z,73.1
2022-09-05T09:15:00.311Z,69
2022-09-05T09:20:00.167Z,69.2
2022-09-05T09:25:12.022Z,68.7
2022-09-05T09:30:00.181Z,68.9
2022-09-05T09:35:00.171Z,68.7
2022-09-05T09:40:00.286Z,70
2022-09-05T09:45:00.344Z,68.5
2022-09-05T09:50:00.301Z,67.9
2022-09-05T09:55:00.289Z,65.3
2022-09-05T10:00:00.303Z,64.4
2022-09-05T10:10:40.258Z,64.6
2022-09-05T10:10:52.197Z,64.4
2022-09-05T10:15:05.230Z,65
2022-09-05T10:20:09.840Z,66.9
2022-09-05T10:25:18.825Z,66.8
2022-09-05T10:30:00.164Z,66
2022-09-05T10:35:18.285Z,64.4
2022-09-05T10:40:00.371Z,66.3
2022-09-05T10:45:00.186Z,64.8
2022-09-05T10:50:00.190Z,65.4
2022-09-05T10:55:15.145Z,65.7
2022-09-05T11:02:21.303Z,65.1
2022-09-05T11:05:00.225Z,63.8
2022-09-05T11:10:00.187Z,65.1
2022-09-05T11:15:00.198Z,64.4
2022-09-05T11:20:00.234Z,64.7
2022-09-05T11:25:00.193Z,64.4
2022-09-05T11:30:00.177Z,64.7
2022-09-05T11:39:50.889Z,65.4
2022-09-05T11:40:28.818Z,65.4
2022-09-05T11:45:00.170Z,63.7
2022-09-05T11:50:00.204Z,63.5
2022-09-05T11:55:00.167Z,65.1
2022-09-05T12:00:10.684Z,64.5
2022-09-05T12:05:48.817Z,64.5
2022-09-05T12:10:00.213Z,64.5
2022-09-05T12:15:00.191Z,63.9
2022-09-05T12:20:00.179Z,63.9
2022-09-05T12:25:25.517Z,61.6
2022-09-05T12:30:00.864Z,62
2022-09-05T12:36:12.451Z,62.9
2022-09-05T12:41:37.847Z,63.3
2022-09-05T12:45:00.977Z,63.3
2022-09-05T12:50:03.474Z,63.9
2022-09-05T12:55:00.172Z,63.3
2022-09-05T13:03:05.713Z,63.3
2022-09-05T13:05:01.974Z,61.4
2022-09-05T13:11:57.122Z,61.4
2022-09-05T13:15:12.384Z,58.5
2022-09-05T13:20:00.176Z,60.1
2022-09-05T13:25:00.283Z,59.8
2022-09-05T13:30:56.385Z,58.3
2022-09-05T13:38:19.330Z,56.4
2022-09-05T13:40:00.309Z,58.9
2022-09-05T13:45:00.169Z,58.9
2022-09-05T13:50:00.196Z,58.3
2022-09-05T13:55:00.224Z,59.9
2022-09-05T14:00:00.183Z,58.3
2022-09-05T14:05:13.118Z,58.9
2022-09-05T14:10:00.188Z,58.3
2022-09-05T14:15:11.302Z,59.2
2022-09-05T14:20:00.207Z,59.5
2022-09-05T14:25:00.391Z,57.6
2022-09-05T14:30:54.078Z,58.9
2022-09-05T14:37:49.005Z,58.5
2022-09-05T14:40:00.244Z,60.1
2022-09-05T14:45:00.162Z,59.5
2022-09-05T14:50:00.185Z,61.4
2022-09-05T14:55:21.794Z,61.4
2022-09-05T15:02:42.423Z,59.4
2022-09-05T15:05:00.163Z,58.8
2022-09-05T15:12:24.453Z,55.9
2022-09-05T15:15:00.164Z,56.5
2022-09-05T15:20:06.647Z,58.2
2022-09-05T15:25:00.171Z,58.5
2022-09-05T15:30:00.184Z,58.8
2022-09-05T15:35:00.167Z,56.8
2022-09-05T15:40:00.410Z,58.8
2022-09-05T15:45:09.773Z,58.1
2022-09-05T15:50:00.180Z,60.1
2022-09-05T15:55:00.234Z,59.1
2022-09-05T16:00:00.188Z,60.7
2022-09-05T16:10:27.220Z,62
2022-09-05T16:10:41.770Z,62
2022-09-05T16:15:19.872Z,62.6
2022-09-05T16:23:17.947Z,63.3
2022-09-05T16:25:00.762Z,63.3
2022-09-05T16:30:00.166Z,63.9
2022-09-05T16:35:00.342Z,65.2
2022-09-05T16:40:00.386Z,64.5
2022-09-05T16:45:00.272Z,64.5
2022-09-05T16:50:00.250Z,65.1
2022-09-05T16:55:00.257Z,66
2022-09-05T17:00:00.214Z,67
2022-09-05T17:05:05.001Z,67.6
2022-09-05T17:10:00.184Z,68.2
2022-09-05T17:15:00.216Z,68.8
2022-09-05T17:20:07.020Z,70.7
2022-09-05T17:29:19.307Z,71.6
2022-09-05T17:31:27.798Z,72.9
2022-09-05T17:35:17.745Z,73.8
2022-09-05T17:40:00.280Z,74.4
2022-09-05T17:45:00.163Z,75
2022-09-05T17:50:00.162Z,75.6
2022-09-05T17:55:00.292Z,75.6
2022-09-05T18:00:00.196Z,76.2
2022-09-05T18:05:00.181Z,76.8
2022-09-05T18:10:12.875Z,76.4
2022-09-05T18:20:00.204Z,78.3
2022-09-05T18:25:13.683Z,79.5
2022-09-05T18:30:00.168Z,80.4
2022-09-05T18:35:00.222Z,80.7
2022-09-05T18:40:00.317Z,80.4
2022-09-05T18:45:00.169Z,81.7
2022-09-05T18:50:27.472Z,81
2022-09-05T18:56:12.364Z,81.6
2022-09-05T19:00:00.177Z,82.5
2022-09-05T19:05:00.163Z,83.1
2022-09-05T19:10:00.163Z,84.1
2022-09-05T19:15:00.171Z,84.7
2022-09-05T19:20:25.270Z,84.7
2022-09-05T19:25:00.300Z,84.7
2022-09-05T19:36:59.236Z,84.7
2022-09-05T19:37:03.123Z,85
2022-09-05T19:44:31.129Z,85.4
2022-09-05T19:47:56.324Z,85.3
2022-09-05T19:50:00.236Z,86.2
2022-09-05T19:55:00.167Z,86.2
2022-09-05T20:00:00.178Z,85.9
2022-09-05T20:05:00.180Z,85.9
2022-09-05T20:10:00.174Z,85.9
2022-09-05T20:15:00.188Z,86.5
2022-09-05T20:20:00.198Z,85.9
2022-09-05T20:25:00.192Z,86.5
2022-09-05T20:30:00.290Z,86.5
2022-09-05T20:35:58.492Z,87.1
2022-09-05T20:43:21.347Z,87.7
2022-09-05T20:45:00.176Z,87.4
2022-09-05T20:54:16.968Z,87.4
2022-09-05T20:55:15.959Z,87.7
2022-09-05T21:00:00.165Z,87.7
2022-09-05T21:05:06.873Z,87.7
2022-09-05T21:10:00.179Z,88
2022-09-05T21:15:00.174Z,87.7
2022-09-05T21:20:00.186Z,87.6
2022-09-05T21:25:00.168Z,87.6
2022-09-05T21:30:00.186Z,87.9
2022-09-05T21:35:00.195Z,88.2
2022-09-05T21:40:01.189Z,88.2
2022-09-05T21:47:49.621Z,88.6
2022-09-05T21:50:00.263Z,88.8
2022-09-05T21:59:20.899Z,88.9
2022-09-05T22:00:06.936Z,88.9
2022-09-05T22:05:03.012Z,89.2
2022-09-05T22:10:00.193Z,88.9
2022-09-05T22:15:12.791Z,88.9
2022-09-05T22:20:00.263Z,88.9
2022-09-05T22:25:00.261Z,88.9
2022-09-05T22:30:00.302Z,88.9
2022-09-05T22:35:00.333Z,88.8
2022-09-05T22:40:00.336Z,88.8
2022-09-05T22:45:00.202Z,88.8
2022-09-05T22:50:00.182Z,88.8
2022-09-05T22:55:00.179Z,88.8
2022-09-05T23:00:00.437Z,88.5
2022-09-05T23:05:00.170Z,88.8
2022-09-05T23:10:00.182Z,88.8
2022-09-05T23:15:00.168Z,88.8
2022-09-05T23:20:00.171Z,88.8
2022-09-05T23:25:00.181Z,88.8
2022-09-05T23:30:00.190Z,88.8
2022-09-05T23:35:00.193Z,88.8
2022-09-05T23:40:00.350Z,89.1
2022-09-05T23:45:00.169Z,89.1
2022-09-05T23:50:00.187Z,89.1
2022-09-05T23:55:00.212Z,89.4
